createdAt,value
2022-12-11T05:13:06.145Z,9.03
2022-12-11T05:28:10.660Z,8.60
2022-12-11T05:43:15.252Z,9.67
2022-12-11T05:58:19.827Z,10.60
2022-12-11T06:13:24.511Z,10.50
2022-12-11T06:28:28.960Z,9.20
2022-12-11T06:43:34.178Z,13.60
2022-12-11T06:58:39.691Z,16.00
2022-12-11T07:13:45.029Z,19.53
2022-12-11T07:28:49.885Z,20.37
2022-12-11T07:43:54.810Z,22.90
2022-12-11T07:59:00.876Z,25.50
2022-12-11T08:14:06.685Z,23.20
2022-12-11T08:29:11.172Z,23.83
2022-12-11T08:44:16.952Z,22.67
2022-12-11T08:59:21.604Z,22.83
2022-12-11T09:14:26.098Z,21.53
2022-12-11T09:29:30.563Z,21.93
2022-12-11T09:44:40.948Z,20.27
2022-12-11T10:00:04.464Z,20.83
2022-12-11T10:15:27.133Z,16.97
2022-12-11T10:30:37.855Z,17.77
2022-12-11T10:45:52.042Z,16.77
2022-12-11T11:01:07.467Z,18.60
2022-12-11T11:16:16.784Z,40.13
2022-12-11T11:31:23.445Z,20.67
2022-12-11T11:46:36.674Z,20.17
2022-12-11T12:01:42.687Z,23.27
2022-12-11T12:16:58.646Z,19.67
2022-12-11T12:32:15.612Z,19.67
2022-12-11T12:47:20.871Z,20.20
2022-12-11T13:02:25.868Z,22.47
2022-12-11T13:17:39.670Z,20.43
2022-12-11T13:32:50.827Z,42.90
2022-12-11T13:47:56.084Z,20.70
2022-12-11T14:03:07.289Z,20.83
2022-12-11T14:18:18.825Z,21.77
2022-12-11T14:33:26.931Z,19.13
2022-12-11T14:48:37.016Z,20.07
2022-12-11T15:03:43.793Z,21.07
2022-12-11T15:18:52.114Z,23.00
2022-12-11T15:33:57.535Z,21.50
2022-12-11T15:49:01.930Z,22.43
2022-12-11T16:04:06.673Z,24.60
2022-12-11T16:19:11.069Z,28.27
2022-12-11T16:34:15.538Z,29.53
2022-12-11T16:49:20.377Z,31.67
2022-12-11T17:04:28.563Z,32.57
2022-12-11T17:19:33.208Z,31.70
2022-12-11T17:34:38.690Z,32.67
2022-12-11T17:49:43.446Z,33.47
2022-12-11T18:04:47.975Z,33.70
2022-12-11T18:19:54.245Z,32.40
2022-12-11T18:35:02.268Z,31.50
2022-12-11T18:50:08.411Z,34.20
2022-12-11T19:05:13.543Z,33.10
2022-12-11T19:20:47.461Z,34.03
2022-12-11T19:35:44.157Z,30.83
2022-12-11T19:50:48.633Z,33.67
2022-12-11T20:05:54.041Z,27.40
2022-12-11T20:21:01.925Z,29.17
2022-12-11T20:36:09.879Z,26.07
2022-12-11T20:51:19.706Z,27.17
2022-12-11T21:06:31.665Z,26.23
2022-12-11T21:21:39.755Z,26.27
2022-12-11T21:36:44.154Z,28.40
2022-12-11T21:51:48.671Z,30.23
2022-12-11T22:06:53.387Z,27.50
2022-12-11T22:21:58.006Z,26.77
2022-12-11T22:37:02.466Z,27.20
2022-12-11T22:52:07.106Z,24.97
2022-12-11T23:07:11.598Z,24.50
2022-12-11T23:22:16.230Z,25.73
2022-12-11T23:37:20.779Z,26.53
2022-12-11T23:52:26.559Z,32.20
